createdAt,value
2019-04-27T00:02:40.041Z,15.44
2019-04-27T00:05:34.860Z,15.34
2019-04-27T00:08:13.944Z,15.28
2019-04-27T00:10:55.537Z,15.22
2019-04-27T00:13:27.721Z,15.15
2019-04-27T00:16:24.372Z,15.12
2019-04-27T00:19:15.124Z,15.16
2019-04-27T00:22:05.038Z,15.10
2019-04-27T00:24:37.123Z,15.06
2019-04-27T00:27:09.282Z,14.95
2019-04-27T00:29:42.816Z,14.85
2019-04-27T00:32:14.936Z,14.81
2019-04-27T00:34:47.083Z,14.78
2019-04-27T00:37:36.713Z,14.72
2019-04-27T00:40:18.033Z,14.76
2019-04-27T00:42:49.896Z,14.87
2019-04-27T00:45:23.440Z,14.92
2019-04-27T00:47:59.459Z,14.92
2019-04-27T00:50:29.194Z,14.89
2019-04-27T00:53:03.424Z,14.96
2019-04-27T00:55:37.445Z,14.98
2019-04-27T00:58:17.386Z,14.89
2019-04-27T01:01:10.153Z,14.80
2019-04-27T01:04:00.926Z,14.77
2019-04-27T01:06:33.620Z,14.83
2019-04-27T01:09:09.500Z,14.74
2019-04-27T01:11:43.428Z,14.74
2019-04-27T01:14:15.626Z,14.74
2019-04-27T01:16:49.225Z,14.81
2019-04-27T01:19:21.309Z,14.86
2019-04-27T01:21:53.350Z,14.91
2019-04-27T01:24:25.436Z,14.89
2019-04-27T01:27:34.298Z,14.83
2019-04-27T01:30:11.837Z,14.81
2019-04-27T01:32:44.017Z,14.79
2019-04-27T01:35:15.135Z,14.74
2019-04-27T01:37:48.672Z,14.57
2019-04-27T01:40:20.697Z,14.53
2019-04-27T01:42:52.588Z,14.54
2019-04-27T01:45:24.617Z,14.50
2019-04-27T01:47:59.429Z,14.53
2019-04-27T01:50:31.227Z,14.56
2019-04-27T01:53:03.308Z,14.54
2019-04-27T01:55:34.396Z,14.57
2019-04-27T01:58:06.096Z,14.53
2019-04-27T02:01:02.308Z,14.52
2019-04-27T02:03:51.858Z,14.58
2019-04-27T02:06:24.969Z,14.53
2019-04-27T02:08:56.869Z,14.53
2019-04-27T02:11:28.758Z,14.53
2019-04-27T02:14:00.608Z,14.52
2019-04-27T02:16:32.538Z,14.52
2019-04-27T02:19:04.639Z,14.54
2019-04-27T02:21:35.653Z,14.54
2019-04-27T02:24:09.755Z,14.51
2019-04-27T02:26:41.631Z,14.54
2019-04-27T02:29:41.458Z,14.54
2019-04-27T02:32:40.490Z,14.50
2019-04-27T02:35:15.210Z,14.51
2019-04-27T02:37:47.244Z,14.51
2019-04-27T02:40:42.392Z,14.49
2019-04-27T02:43:14.880Z,14.44
2019-04-27T02:45:50.153Z,14.44
2019-04-27T02:48:21.670Z,14.43
2019-04-27T02:50:56.490Z,14.42
2019-04-27T02:53:45.974Z,14.40
2019-04-27T02:56:20.261Z,14.38
2019-04-27T02:58:51.870Z,14.35
2019-04-27T03:01:26.304Z,14.34
2019-04-27T03:04:00.223Z,14.34
2019-04-27T03:06:32.290Z,14.34
2019-04-27T03:09:04.811Z,14.32
2019-04-27T03:11:39.548Z,14.37
2019-04-27T03:14:35.288Z,14.58
2019-04-27T03:17:32.800Z,14.64
2019-04-27T03:20:30.728Z,14.52
2019-04-27T03:23:05.130Z,14.39
2019-04-27T03:25:54.808Z,14.25
2019-04-27T03:28:29.655Z,14.21
2019-04-27T03:31:02.368Z,14.30
2019-04-27T03:33:35.480Z,14.43
2019-04-27T03:36:12.474Z,14.53
2019-04-27T03:38:42.181Z,14.60
2019-04-27T03:41:13.225Z,14.55
2019-04-27T03:43:45.206Z,14.49
2019-04-27T03:46:20.219Z,14.49
2019-04-27T03:48:51.739Z,14.57
2019-04-27T03:51:32.769Z,14.69
2019-04-27T03:54:26.518Z,14.78
2019-04-27T03:57:05.718Z,14.95
2019-04-27T03:59:55.309Z,15.03
2019-04-27T04:02:29.922Z,15.06
2019-04-27T04:05:01.222Z,15.16
2019-04-27T04:07:32.406Z,15.32
2019-04-27T04:10:04.618Z,15.44
2019-04-27T04:12:50.091Z,15.55
2019-04-27T04:15:39.820Z,15.66
2019-04-27T04:18:12.523Z,15.76
2019-04-27T04:20:44.538Z,15.83
2019-04-27T04:23:16.650Z,15.94
2019-04-27T04:25:49.883Z,16.05
2019-04-27T04:28:22.098Z,16.19
2019-04-27T04:30:54.162Z,16.31
2019-04-27T04:33:26.203Z,16.44
2019-04-27T04:35:59.732Z,16.61
2019-04-27T04:38:32.041Z,16.74
2019-04-27T04:41:09.453Z,16.84
2019-04-27T04:43:48.963Z,16.97
2019-04-27T04:46:39.937Z,17.09
2019-04-27T04:49:12.081Z,17.12
2019-04-27T04:51:44.031Z,17.14
2019-04-27T04:54:15.266Z,17.15
2019-04-27T04:56:49.323Z,17.15
2019-04-27T04:59:21.067Z,17.21
2019-04-27T05:01:53.078Z,17.31
2019-04-27T05:04:25.477Z,17.29
2019-04-27T05:06:59.035Z,17.27
2019-04-27T05:09:31.978Z,17.29
2019-04-27T05:12:03.056Z,17.30
2019-04-27T05:14:34.838Z,17.31
2019-04-27T05:17:06.958Z,17.31
2019-04-27T05:19:39.047Z,17.30
2019-04-27T05:22:10.937Z,17.34
2019-04-27T05:24:42.918Z,17.35
2019-04-27T05:27:14.958Z,17.38
2019-04-27T05:29:47.057Z,17.42
2019-04-27T05:32:20.719Z,17.51
2019-04-27T05:34:52.927Z,17.58
2019-04-27T05:37:28.228Z,17.70
2019-04-27T05:39:58.972Z,17.82
2019-04-27T05:42:32.017Z,18.00
2019-04-27T05:45:24.193Z,18.01
2019-04-27T05:48:00.857Z,18.06
2019-04-27T05:50:38.087Z,18.06
2019-04-27T05:53:06.640Z,18.07
2019-04-27T05:55:39.298Z,18.04
2019-04-27T05:58:11.417Z,18.06
2019-04-27T06:00:44.228Z,17.93
2019-04-27T06:03:16.247Z,17.78
2019-04-27T06:05:49.408Z,17.63
2019-04-27T06:08:21.376Z,17.74
2019-04-27T06:10:53.337Z,17.80
2019-04-27T06:13:24.435Z,17.79
2019-04-27T06:15:56.206Z,17.94
2019-04-27T06:18:29.475Z,18.05
2019-04-27T06:21:01.726Z,18.08
2019-04-27T06:23:33.727Z,18.14
2019-04-27T06:26:05.827Z,18.07
2019-04-27T06:28:36.942Z,18.08
2019-04-27T06:31:09.538Z,18.16
2019-04-27T06:33:41.527Z,18.28
2019-04-27T06:36:12.985Z,18.27
2019-04-27T06:38:44.786Z,18.20
2019-04-27T06:41:15.887Z,18.36
2019-04-27T06:43:49.411Z,18.50
2019-04-27T06:46:21.632Z,18.87
2019-04-27T06:48:53.666Z,19.08
2019-04-27T06:51:25.775Z,19.27
2019-04-27T06:53:59.407Z,19.51
2019-04-27T06:56:31.616Z,19.53
2019-04-27T06:59:03.726Z,19.78
2019-04-27T07:01:34.775Z,19.75
2019-04-27T07:04:08.861Z,19.92
2019-04-27T07:06:52.757Z,20.09
2019-04-27T07:09:14.626Z,19.94
2019-04-27T07:11:46.917Z,19.91
2019-04-27T07:14:19.626Z,20.17
2019-04-27T07:16:50.787Z,20.18
2019-04-27T07:19:22.665Z,19.97
2019-04-27T07:21:54.817Z,19.85
2019-04-27T07:24:25.907Z,19.43
2019-04-27T07:26:59.358Z,19.21
2019-04-27T07:29:31.614Z,18.89
2019-04-27T07:32:03.556Z,18.80
2019-04-27T07:34:35.936Z,18.82
2019-04-27T07:37:09.354Z,18.91
2019-04-27T07:39:42.805Z,18.87
2019-04-27T07:42:14.887Z,18.51
2019-04-27T07:44:50.108Z,18.78
2019-04-27T07:47:26.917Z,19.00
2019-04-27T07:49:59.253Z,19.06
2019-04-27T07:52:34.064Z,18.93
2019-04-27T07:55:05.193Z,18.81
2019-04-27T07:57:36.936Z,18.53
2019-04-27T08:00:11.127Z,18.45
2019-04-27T08:02:43.176Z,18.33
2019-04-27T08:05:14.289Z,18.22
2019-04-27T08:07:46.044Z,17.93
2019-04-27T08:10:19.352Z,18.06
2019-04-27T08:12:51.546Z,18.27
2019-04-27T08:15:23.646Z,18.46
2019-04-27T08:17:54.704Z,18.80
2019-04-27T08:20:26.546Z,18.73
2019-04-27T08:22:59.676Z,18.79
2019-04-27T08:25:32.615Z,18.76
2019-04-27T08:28:22.405Z,18.51
2019-04-27T08:31:15.894Z,18.17
2019-04-27T08:33:48.676Z,18.18
2019-04-27T08:36:20.866Z,18.33
2019-04-27T08:38:52.095Z,18.55
2019-04-27T08:41:23.937Z,18.84
2019-04-27T08:43:55.992Z,19.18
2019-04-27T08:46:28.877Z,19.85
2019-04-27T08:49:01.007Z,20.32
2019-04-27T08:51:32.977Z,20.91
2019-04-27T08:54:04.976Z,20.71
2019-04-27T08:56:36.906Z,20.26
2019-04-27T08:59:09.538Z,19.96
2019-04-27T09:01:41.606Z,19.71
2019-04-27T09:04:13.788Z,19.55
2019-04-27T09:06:46.628Z,19.52
2019-04-27T09:09:46.476Z,19.56
2019-04-27T09:12:36.396Z,19.84
2019-04-27T09:15:17.166Z,19.80
2019-04-27T09:17:52.067Z,19.76
2019-04-27T09:20:30.696Z,20.21
2019-04-27T09:23:02.667Z,20.49
2019-04-27T09:25:34.756Z,20.40
2019-04-27T09:28:05.886Z,20.72
2019-04-27T09:30:39.255Z,20.78
2019-04-27T09:33:11.528Z,20.75
2019-04-27T09:35:43.705Z,20.56
2019-04-27T09:38:16.749Z,20.22
2019-04-27T09:40:49.746Z,20.20
2019-04-27T09:43:22.027Z,19.80
2019-04-27T09:45:55.799Z,19.95
2019-04-27T09:48:28.057Z,20.12
2019-04-27T09:51:00.136Z,20.12
2019-04-27T09:53:32.036Z,20.04
2019-04-27T09:56:05.796Z,20.04
2019-04-27T09:58:38.246Z,19.89
2019-04-27T10:01:10.387Z,19.95
2019-04-27T10:03:41.324Z,19.99
2019-04-27T10:06:13.317Z,20.10
2019-04-27T10:08:44.235Z,20.64
2019-04-27T10:11:17.007Z,21.31
2019-04-27T10:13:49.175Z,22.06
2019-04-27T10:16:21.146Z,21.98
2019-04-27T10:18:52.165Z,21.34
2019-04-27T10:21:24.006Z,20.66
2019-04-27T10:23:57.072Z,20.47
2019-04-27T10:26:29.216Z,19.97
2019-04-27T10:29:00.125Z,19.68
2019-04-27T10:31:31.921Z,19.69
2019-04-27T10:34:03.907Z,19.79
2019-04-27T10:36:41.796Z,20.21
2019-04-27T10:39:14.606Z,20.53
2019-04-27T10:41:46.639Z,20.87
2019-04-27T10:44:18.816Z,20.85
2019-04-27T10:46:50.816Z,20.35
2019-04-27T10:49:22.806Z,20.11
2019-04-27T10:51:55.771Z,19.80
2019-04-27T10:54:29.326Z,19.50
2019-04-27T10:57:01.319Z,19.13
2019-04-27T10:59:33.227Z,19.13
2019-04-27T11:02:05.667Z,19.01
2019-04-27T11:04:50.066Z,18.95
2019-04-27T11:07:25.937Z,18.97
2019-04-27T11:09:58.066Z,19.25
2019-04-27T11:12:30.427Z,19.42
2019-04-27T11:15:02.367Z,19.42
2019-04-27T11:17:34.389Z,19.46
2019-04-27T11:20:07.447Z,19.24
2019-04-27T11:22:39.729Z,19.01
2019-04-27T11:25:11.044Z,18.99
2019-04-27T11:27:42.880Z,18.86
2019-04-27T11:30:16.847Z,18.81
2019-04-27T11:32:48.836Z,18.61
2019-04-27T11:35:43.546Z,18.50
2019-04-27T11:38:16.765Z,18.31
2019-04-27T11:40:48.939Z,18.27
2019-04-27T11:43:21.077Z,18.29
2019-04-27T11:45:53.455Z,18.15
2019-04-27T11:48:26.246Z,18.14
2019-04-27T11:50:58.366Z,18.16
2019-04-27T11:53:30.286Z,18.17
2019-04-27T11:56:02.267Z,18.18
2019-04-27T11:58:34.969Z,18.24
2019-04-27T12:01:08.434Z,18.30
2019-04-27T12:03:40.550Z,18.22
2019-04-27T12:06:11.665Z,17.90
2019-04-27T12:08:43.537Z,17.70
2019-04-27T12:11:16.061Z,17.62
2019-04-27T12:13:48.228Z,17.49
2019-04-27T12:16:20.279Z,17.51
2019-04-27T12:18:52.396Z,17.45
2019-04-27T12:21:23.365Z,17.32
2019-04-27T12:23:55.122Z,17.08
2019-04-27T12:26:49.543Z,16.93
2019-04-27T12:29:23.906Z,16.74
2019-04-27T12:31:56.277Z,16.62
2019-04-27T12:34:28.311Z,16.59
2019-04-27T12:37:00.238Z,16.55
2019-04-27T12:39:32.201Z,16.59
2019-04-27T12:42:06.011Z,16.71
2019-04-27T12:44:42.327Z,16.78
2019-04-27T12:47:12.196Z,16.93
2019-04-27T12:49:43.245Z,17.11
2019-04-27T12:52:15.906Z,17.31
2019-04-27T12:54:54.197Z,17.40
2019-04-27T12:57:44.099Z,17.30
2019-04-27T13:00:23.477Z,17.03
2019-04-27T13:02:55.915Z,16.76
2019-04-27T13:05:29.236Z,16.81
2019-04-27T13:08:02.326Z,16.89
2019-04-27T13:10:34.456Z,16.85
2019-04-27T13:13:06.314Z,16.77
2019-04-27T13:15:38.187Z,16.72
2019-04-27T13:18:10.256Z,16.68
2019-04-27T13:20:41.306Z,16.70
2019-04-27T13:23:13.139Z,16.81
2019-04-27T13:25:46.067Z,16.75
2019-04-27T13:28:19.230Z,16.60
2019-04-27T13:30:50.602Z,16.54
2019-04-27T13:33:22.355Z,16.34
2019-04-27T13:35:54.424Z,16.29
2019-04-27T13:38:26.799Z,16.18
2019-04-27T13:41:08.926Z,16.03
2019-04-27T13:43:41.276Z,15.97
2019-04-27T13:46:30.751Z,15.95
2019-04-27T13:49:40.427Z,16.02
2019-04-27T13:52:16.596Z,15.97
2019-04-27T13:54:48.736Z,15.86
2019-04-27T13:57:19.915Z,15.86
2019-04-27T13:59:51.790Z,15.88
2019-04-27T14:02:26.610Z,15.83
2019-04-27T14:04:58.378Z,15.78
2019-04-27T14:07:30.306Z,15.76
2019-04-27T14:10:02.367Z,15.71
2019-04-27T14:12:35.380Z,15.75
2019-04-27T14:15:08.521Z,15.77
2019-04-27T14:17:39.974Z,15.78
2019-04-27T14:20:12.326Z,15.79
2019-04-27T14:22:44.796Z,15.73
2019-04-27T14:25:18.157Z,15.55
2019-04-27T14:27:50.264Z,15.45
2019-04-27T14:30:21.585Z,15.38
2019-04-27T14:32:53.386Z,15.25
2019-04-27T14:35:25.585Z,15.32
2019-04-27T14:37:58.079Z,15.32
2019-04-27T14:40:30.106Z,15.22
2019-04-27T14:43:02.187Z,15.16
2019-04-27T14:45:34.139Z,15.11
2019-04-27T14:48:08.108Z,15.12
2019-04-27T14:50:40.492Z,15.06
2019-04-27T14:53:12.626Z,15.04
2019-04-27T14:55:44.736Z,15.08
2019-04-27T14:58:19.168Z,15.12
2019-04-27T15:00:50.918Z,15.10
2019-04-27T15:03:23.926Z,15.22
2019-04-27T15:05:56.095Z,15.29
2019-04-27T15:08:27.255Z,15.18
2019-04-27T15:10:59.126Z,15.07
2019-04-27T15:13:30.203Z,14.95
2019-04-27T15:16:02.638Z,14.83
2019-04-27T15:18:43.517Z,14.78
2019-04-27T15:21:13.556Z,14.70
2019-04-27T15:23:44.724Z,14.70
2019-04-27T15:26:20.283Z,14.61
2019-04-27T15:28:52.288Z,14.57
2019-04-27T15:31:34.665Z,14.58
2019-04-27T15:34:17.867Z,14.56
2019-04-27T15:37:12.078Z,14.52
2019-04-27T15:40:08.574Z,14.48
2019-04-27T15:42:51.750Z,14.41
2019-04-27T15:45:24.197Z,14.38
2019-04-27T15:47:54.762Z,14.41
2019-04-27T15:50:28.517Z,14.49
2019-04-27T15:53:02.835Z,14.54
2019-04-27T15:55:38.931Z,14.50
2019-04-27T15:58:10.166Z,14.33
2019-04-27T16:00:42.177Z,14.36
2019-04-27T16:03:18.112Z,14.42
2019-04-27T16:05:50.814Z,14.50
2019-04-27T16:08:22.780Z,14.63
2019-04-27T16:10:54.726Z,14.71
2019-04-27T16:13:32.585Z,14.64
2019-04-27T16:16:00.487Z,14.64
2019-04-27T16:18:32.745Z,14.64
2019-04-27T16:21:07.052Z,14.52
2019-04-27T16:23:42.867Z,14.57
2019-04-27T16:26:14.852Z,14.58
2019-04-27T16:28:49.798Z,14.56
2019-04-27T16:31:20.601Z,14.60
2019-04-27T16:33:58.492Z,14.62
2019-04-27T16:36:28.859Z,14.59
2019-04-27T16:39:03.616Z,14.59
2019-04-27T16:41:38.899Z,14.53
2019-04-27T16:44:11.830Z,14.48
2019-04-27T16:46:44.106Z,14.46
2019-04-27T16:49:16.171Z,14.47
2019-04-27T16:51:49.248Z,14.47
2019-04-27T16:54:22.547Z,14.44
2019-04-27T16:57:04.582Z,14.38
2019-04-27T16:59:44.228Z,14.37
2019-04-27T17:02:03.936Z,14.41
2019-04-27T17:04:35.877Z,14.48
2019-04-27T17:07:08.700Z,14.44
2019-04-27T17:09:46.126Z,14.43
2019-04-27T17:12:15.491Z,14.40
2019-04-27T17:14:54.746Z,14.37
2019-04-27T17:17:42.759Z,14.37
2019-04-27T17:20:19.637Z,14.34
2019-04-27T17:22:50.242Z,14.30
2019-04-27T17:25:23.227Z,14.27
2019-04-27T17:28:04.040Z,14.21
2019-04-27T17:30:39.812Z,14.17
2019-04-27T17:33:38.085Z,14.16
2019-04-27T17:36:16.381Z,14.06
2019-04-27T17:38:49.177Z,14.10
2019-04-27T17:41:20.077Z,14.04
2019-04-27T17:43:52.016Z,14.04
2019-04-27T17:46:25.767Z,14.05
2019-04-27T17:49:08.458Z,14.01
2019-04-27T17:51:44.351Z,14.02
2019-04-27T17:54:15.865Z,14.02
2019-04-27T17:56:49.434Z,14.03
2019-04-27T17:59:20.971Z,14.00
2019-04-27T18:01:53.942Z,13.99
2019-04-27T18:04:28.687Z,14.00
2019-04-27T18:07:03.316Z,13.98
2019-04-27T18:09:40.370Z,13.95
2019-04-27T18:12:14.591Z,13.93
2019-04-27T18:14:42.546Z,13.94
2019-04-27T18:17:14.603Z,13.94
2019-04-27T18:19:53.496Z,13.89
2019-04-27T18:22:28.186Z,13.85
2019-04-27T18:25:06.591Z,13.87
2019-04-27T18:27:52.277Z,13.87
2019-04-27T18:30:38.119Z,13.87
2019-04-27T18:33:08.041Z,13.87
2019-04-27T18:35:40.146Z,13.83
2019-04-27T18:38:12.286Z,13.76
2019-04-27T18:40:44.376Z,13.73
2019-04-27T18:43:15.476Z,13.77
2019-04-27T18:45:48.598Z,13.70
2019-04-27T18:48:58.452Z,13.69
2019-04-27T18:52:04.134Z,13.70
2019-04-27T18:54:38.203Z,13.73
2019-04-27T18:57:10.870Z,13.74
2019-04-27T18:59:41.326Z,13.74
2019-04-27T19:02:13.286Z,13.70
2019-04-27T19:04:45.296Z,13.72
2019-04-27T19:07:17.266Z,13.71
2019-04-27T19:09:49.594Z,13.68
2019-04-27T19:12:21.568Z,13.70
2019-04-27T19:14:52.926Z,13.69
2019-04-27T19:17:25.066Z,13.70
2019-04-27T19:19:57.117Z,13.70
2019-04-27T19:22:30.002Z,13.71
2019-04-27T19:25:02.186Z,13.73
2019-04-27T19:27:48.636Z,13.74
2019-04-27T19:30:31.767Z,13.71
2019-04-27T19:33:03.906Z,13.69
2019-04-27T19:35:44.308Z,13.67
2019-04-27T19:38:18.619Z,13.65
2019-04-27T19:40:50.887Z,13.64
2019-04-27T19:43:22.897Z,13.64
2019-04-27T19:45:55.137Z,13.64
2019-04-27T19:48:28.658Z,13.63
2019-04-27T19:51:00.767Z,13.64
2019-04-27T19:53:32.727Z,13.65
2019-04-27T19:56:03.884Z,13.65
2019-04-27T19:58:42.946Z,13.59
2019-04-27T20:01:22.077Z,13.57
2019-04-27T20:03:59.801Z,13.60
2019-04-27T20:06:31.913Z,13.60
2019-04-27T20:09:04.925Z,13.58
2019-04-27T20:14:18.041Z,13.56
2019-04-27T20:16:49.090Z,13.53
2019-04-27T20:19:21.576Z,13.51
2019-04-27T20:21:53.746Z,13.50
2019-04-27T20:24:25.876Z,13.50
2019-04-27T20:26:56.844Z,13.48
2019-04-27T20:29:28.556Z,13.46
2019-04-27T20:32:01.215Z,13.46
2019-04-27T20:34:33.342Z,13.50
2019-04-27T20:37:05.646Z,13.50
2019-04-27T20:39:36.685Z,13.49
2019-04-27T20:42:08.537Z,13.46
2019-04-27T20:44:41.259Z,13.49
2019-04-27T20:47:13.278Z,13.39
2019-04-27T20:49:44.345Z,13.41
2019-04-27T20:52:23.086Z,13.38
2019-04-27T20:54:55.126Z,13.42
2019-04-27T20:57:27.166Z,13.43
2019-04-27T20:59:59.247Z,13.41
2019-04-27T21:02:43.199Z,13.39
2019-04-27T21:05:46.626Z,13.38
2019-04-27T21:08:20.872Z,13.39
2019-04-27T21:10:52.970Z,13.34
2019-04-27T21:13:23.965Z,13.34
2019-04-27T21:15:55.717Z,13.26
2019-04-27T21:18:27.775Z,13.27
2019-04-27T21:21:01.392Z,13.26
2019-04-27T21:23:33.306Z,13.25
2019-04-27T21:26:06.767Z,13.23
2019-04-27T21:28:38.875Z,13.22
2019-04-27T21:31:12.687Z,13.18
2019-04-27T21:33:44.666Z,13.20
2019-04-27T21:36:16.670Z,13.20
2019-04-27T21:38:47.725Z,13.20
2019-04-27T21:41:20.917Z,13.14
2019-04-27T21:43:53.296Z,13.11
2019-04-27T21:46:25.268Z,13.12
2019-04-27T21:48:57.176Z,13.10
2019-04-27T21:51:29.606Z,13.12
2019-04-27T21:54:17.071Z,13.11
2019-04-27T21:56:49.146Z,13.08
2019-04-27T21:59:21.135Z,13.04
2019-04-27T22:01:55.437Z,13.03
2019-04-27T22:04:27.394Z,13.07
2019-04-27T22:07:01.416Z,13.07
2019-04-27T22:09:33.646Z,13.05
2019-04-27T22:12:05.976Z,13.06
2019-04-27T22:14:38.924Z,13.06
2019-04-27T22:17:11.122Z,13.04
2019-04-27T22:19:42.185Z,13.03
2019-04-27T22:22:24.827Z,13.02
2019-04-27T22:25:05.896Z,13.02
2019-04-27T22:27:37.946Z,13.01
2019-04-27T22:30:10.993Z,13.01
2019-04-27T22:32:43.066Z,13.01
2019-04-27T22:35:15.207Z,13.01
2019-04-27T22:37:46.365Z,13.02
2019-04-27T22:40:37.146Z,12.99
2019-04-27T22:43:34.306Z,13.01
2019-04-27T22:46:07.891Z,13.01
2019-04-27T22:48:41.567Z,12.98
2019-04-27T22:51:14.585Z,12.96
2019-04-27T22:53:46.706Z,12.96
2019-04-27T22:56:22.253Z,12.94
2019-04-27T22:59:07.463Z,12.92
2019-04-27T23:02:01.575Z,12.92
2019-04-27T23:04:37.665Z,12.92
2019-04-27T23:07:11.076Z,12.93
2019-04-27T23:09:44.336Z,12.95
2019-04-27T23:12:16.827Z,12.93
2019-04-27T23:14:48.996Z,12.92
2019-04-27T23:17:55.107Z,12.93
2019-04-27T23:20:27.518Z,12.90
2019-04-27T23:23:01.286Z,12.89
2019-04-27T23:25:33.238Z,12.86
2019-04-27T23:28:05.367Z,12.84
2019-04-27T23:30:44.949Z,12.81
2019-04-27T23:33:16.996Z,12.81
2019-04-27T23:35:49.016Z,12.80
2019-04-27T23:38:21.130Z,12.78
2019-04-27T23:40:53.086Z,12.78
2019-04-27T23:43:25.047Z,12.79
2019-04-27T23:45:58.366Z,12.72
2019-04-27T23:48:32.141Z,12.71
2019-04-27T23:51:25.798Z,12.70
2019-04-27T23:53:57.967Z,12.69
2019-04-27T23:56:28.985Z,12.69
2019-04-27T23:59:01.826Z,12.63
